createdAt,value
2022-08-28T00:01:01.883Z,18.17
2022-08-28T00:03:30.435Z,15.03
2022-08-28T00:05:57.284Z,17.83
2022-08-28T00:08:26.753Z,17.00
2022-08-28T00:10:54.236Z,11.00
2022-08-28T00:13:23.256Z,20.23
2022-08-28T00:15:58.240Z,17.10
2022-08-28T00:18:25.598Z,13.60
2022-08-28T00:20:52.881Z,18.80
2022-08-28T00:23:20.008Z,15.93
2022-08-28T00:25:47.064Z,14.20
2022-08-28T00:28:24.257Z,19.77
2022-08-28T00:30:58.661Z,20.90
2022-08-28T00:33:33.073Z,14.70
2022-08-28T00:36:02.337Z,19.77
2022-08-28T00:38:32.063Z,12.60
2022-08-28T00:41:03.683Z,12.57
2022-08-28T00:43:38.942Z,12.60
2022-08-28T00:46:09.503Z,25.80
2022-08-28T00:48:37.708Z,13.90
2022-08-28T00:51:23.429Z,18.20
2022-08-28T00:53:50.672Z,19.00
2022-08-28T00:56:18.843Z,22.33
2022-08-28T00:58:46.776Z,20.50
2022-08-28T01:01:14.538Z,25.70
2022-08-28T01:03:47.130Z,19.37
2022-08-28T01:06:15.307Z,17.37
2022-08-28T01:08:44.027Z,11.33
2022-08-28T01:11:20.715Z,19.10
2022-08-28T01:13:48.636Z,15.43
2022-08-28T01:16:16.680Z,12.33
2022-08-28T01:18:45.825Z,21.50
2022-08-28T01:21:21.980Z,17.23
2022-08-28T01:23:54.061Z,24.77
2022-08-28T01:26:22.148Z,16.33
2022-08-28T01:28:48.976Z,16.63
2022-08-28T01:31:17.042Z,15.13
2022-08-28T01:33:51.214Z,16.07
2022-08-28T01:36:18.640Z,16.20
2022-08-28T01:38:47.422Z,21.60
2022-08-28T01:41:15.682Z,13.10
2022-08-28T01:43:43.656Z,12.60
2022-08-28T01:46:12.287Z,18.90
2022-08-28T01:48:42.467Z,15.83
2022-08-28T01:51:10.815Z,17.13
2022-08-28T01:53:41.972Z,16.97
2022-08-28T01:56:14.521Z,16.73
2022-08-28T01:58:41.753Z,15.73
2022-08-28T02:01:17.803Z,14.83
2022-08-28T02:03:44.959Z,16.07
2022-08-28T02:06:12.080Z,14.53
2022-08-28T02:08:42.720Z,14.53
2022-08-28T02:11:09.506Z,18.00
2022-08-28T02:13:37.593Z,14.40
2022-08-28T02:16:11.953Z,13.17
2022-08-28T02:18:39.104Z,15.97
2022-08-28T02:21:06.757Z,17.23
2022-08-28T02:23:47.550Z,15.13
2022-08-28T02:26:15.160Z,19.33
2022-08-28T02:28:42.446Z,16.47
2022-08-28T02:31:16.977Z,16.17
2022-08-28T02:33:44.747Z,18.10
2022-08-28T02:36:13.503Z,18.87
2022-08-28T02:38:47.997Z,13.97
2022-08-28T02:41:14.924Z,26.10
2022-08-28T02:43:41.645Z,21.27
2022-08-28T02:46:08.604Z,26.20
2022-08-28T02:48:37.823Z,21.20
2022-08-28T02:51:10.521Z,12.40
2022-08-28T02:53:39.747Z,13.10
2022-08-28T02:56:07.141Z,17.13
2022-08-28T02:58:37.195Z,22.67
2022-08-28T03:01:07.077Z,18.50
2022-08-28T03:03:36.580Z,14.67
2022-08-28T03:06:07.881Z,16.23
2022-08-28T03:08:37.571Z,14.00
2022-08-28T03:11:04.715Z,14.40
2022-08-28T03:13:34.097Z,23.73
2022-08-28T03:16:02.342Z,17.13
2022-08-28T03:18:36.682Z,14.47
2022-08-28T03:21:03.670Z,15.63
2022-08-28T03:23:31.848Z,15.23
2022-08-28T03:26:09.181Z,18.50
2022-08-28T03:28:49.478Z,13.70
2022-08-28T03:31:23.068Z,12.63
2022-08-28T03:33:50.385Z,17.37
2022-08-28T03:36:25.396Z,14.73
2022-08-28T03:38:54.824Z,17.80
2022-08-28T03:41:23.367Z,16.73
2022-08-28T03:43:51.184Z,19.50
2022-08-28T03:46:24.942Z,12.97
2022-08-28T03:48:52.544Z,19.40
2022-08-28T03:51:29.131Z,15.87
2022-08-28T03:54:00.717Z,14.30
2022-08-28T03:56:29.065Z,23.90
2022-08-28T03:59:01.167Z,20.40
2022-08-28T04:01:28.528Z,17.90
2022-08-28T04:03:55.999Z,14.07
2022-08-28T04:06:22.975Z,14.10
2022-08-28T04:08:55.286Z,16.87
2022-08-28T04:11:27.069Z,14.80
2022-08-28T04:13:53.811Z,18.00
2022-08-28T04:16:21.036Z,11.70
2022-08-28T04:18:49.049Z,15.13
2022-08-28T04:21:21.394Z,13.40
2022-08-28T04:23:48.416Z,21.33
2022-08-28T04:26:21.212Z,9.73
2022-08-28T04:28:48.418Z,15.70
2022-08-28T04:31:15.735Z,19.33
2022-08-28T04:33:42.861Z,14.03
2022-08-28T04:36:17.941Z,17.20
2022-08-28T04:38:44.789Z,12.73
2022-08-28T04:41:14.077Z,16.73
2022-08-28T04:43:40.850Z,13.13
2022-08-28T04:46:12.851Z,14.57
2022-08-28T04:48:40.424Z,11.33
2022-08-28T04:51:10.467Z,11.10
2022-08-28T04:53:41.026Z,17.30
2022-08-28T04:56:10.902Z,8.60
2022-08-28T04:58:38.679Z,9.60
2022-08-28T05:01:11.283Z,12.43
2022-08-28T05:03:38.450Z,16.90
2022-08-28T05:06:06.679Z,16.60
2022-08-28T05:08:33.715Z,14.83
2022-08-28T05:11:22.064Z,20.00
2022-08-28T05:14:01.086Z,13.80
2022-08-28T05:16:28.002Z,7.83
2022-08-28T05:18:54.755Z,13.00
2022-08-28T05:21:25.691Z,14.23
2022-08-28T05:23:56.507Z,16.87
2022-08-28T05:26:23.566Z,15.97
2022-08-28T05:28:57.941Z,11.47
2022-08-28T05:31:24.907Z,13.43
2022-08-28T05:33:52.851Z,11.20
2022-08-28T05:36:25.856Z,12.13
2022-08-28T05:38:59.152Z,20.47
2022-08-28T05:41:30.146Z,13.70
2022-08-28T05:44:02.801Z,21.03
2022-08-28T05:46:30.035Z,8.10
2022-08-28T05:48:57.723Z,12.37
2022-08-28T05:51:28.191Z,13.10
2022-08-28T05:53:57.676Z,16.17
2022-08-28T05:56:29.535Z,12.17
2022-08-28T05:59:00.195Z,15.53
2022-08-28T06:01:32.505Z,13.30
2022-08-28T06:04:02.042Z,14.60
2022-08-28T06:06:30.820Z,11.60
2022-08-28T06:09:05.289Z,10.77
2022-08-28T06:11:32.724Z,14.57
2022-08-28T06:14:03.691Z,9.07
2022-08-28T06:16:31.933Z,8.73
2022-08-28T06:18:59.073Z,7.70
2022-08-28T06:21:26.155Z,11.37
2022-08-28T06:23:53.015Z,6.33
2022-08-28T06:26:19.730Z,7.30
2022-08-28T06:28:46.480Z,9.80
2022-08-28T06:31:23.983Z,12.40
2022-08-28T06:33:56.193Z,10.47
2022-08-28T06:36:23.983Z,11.10
2022-08-28T06:38:51.092Z,14.07
2022-08-28T06:41:20.740Z,10.87
2022-08-28T06:43:47.552Z,12.77
2022-08-28T06:46:14.243Z,15.47
2022-08-28T06:48:41.005Z,8.30
2022-08-28T06:51:09.845Z,11.10
2022-08-28T06:53:37.609Z,15.43
2022-08-28T06:56:08.175Z,8.90
2022-08-28T06:58:37.098Z,15.37
2022-08-28T07:01:12.543Z,10.93
2022-08-28T07:03:42.657Z,10.33
2022-08-28T07:06:12.567Z,12.00
2022-08-28T07:08:44.099Z,8.83
2022-08-28T07:11:26.165Z,8.97
2022-08-28T07:13:53.868Z,8.40
2022-08-28T07:16:22.977Z,7.23
2022-08-28T07:19:02.150Z,10.37
2022-08-28T07:21:41.564Z,6.63
2022-08-28T07:24:29.878Z,8.00
2022-08-28T07:26:56.944Z,9.30
2022-08-28T07:29:36.575Z,16.03
2022-08-28T07:32:23.595Z,10.97
2022-08-28T07:35:02.911Z,12.33
2022-08-28T07:37:29.839Z,10.37
2022-08-28T07:39:58.709Z,10.30
2022-08-28T07:42:50.759Z,11.20
2022-08-28T07:45:17.888Z,6.03
2022-08-28T07:47:53.715Z,11.40
2022-08-28T07:50:23.739Z,14.57
2022-08-28T07:52:53.019Z,10.63
2022-08-28T07:55:20.197Z,9.27
2022-08-28T07:57:55.856Z,19.20
2022-08-28T08:00:24.289Z,9.50
2022-08-28T08:02:51.041Z,9.43
2022-08-28T08:05:26.916Z,10.73
2022-08-28T08:07:53.948Z,9.80
2022-08-28T08:10:21.083Z,9.37
2022-08-28T08:12:59.386Z,11.80
2022-08-28T08:15:31.315Z,8.57
2022-08-28T08:20:39.356Z,9.90
2022-08-28T08:23:11.327Z,7.30
2022-08-28T08:25:38.334Z,8.90
2022-08-28T08:28:15.144Z,10.53
2022-08-28T08:30:46.191Z,12.07
2022-08-28T08:33:13.558Z,14.97
2022-08-28T08:35:40.343Z,5.87
2022-08-28T08:38:14.592Z,6.13
2022-08-28T08:40:46.843Z,6.90
2022-08-28T08:43:15.218Z,9.43
2022-08-28T08:45:45.071Z,13.37
2022-08-28T08:48:26.042Z,8.00
2022-08-28T08:50:52.939Z,12.50
2022-08-28T08:53:53.521Z,19.33
2022-08-28T08:56:21.887Z,9.73
2022-08-28T08:58:57.119Z,7.90
2022-08-28T09:01:29.225Z,9.30
2022-08-28T09:03:55.933Z,7.60
2022-08-28T09:06:55.361Z,9.63
2022-08-28T09:09:34.228Z,12.00
2022-08-28T09:12:04.834Z,7.70
2022-08-28T09:14:50.793Z,8.80
2022-08-28T09:17:20.221Z,7.87
2022-08-28T09:19:47.147Z,11.33
2022-08-28T09:22:16.112Z,14.13
2022-08-28T09:24:42.817Z,6.73
2022-08-28T09:27:32.776Z,6.70
2022-08-28T09:30:09.074Z,8.80
2022-08-28T09:32:39.106Z,6.43
2022-08-28T09:35:24.234Z,5.30
2022-08-28T09:37:51.242Z,8.90
2022-08-28T09:40:51.967Z,8.93
2022-08-28T09:43:26.696Z,10.80
2022-08-28T09:45:53.563Z,9.50
2022-08-28T09:48:25.181Z,10.73
2022-08-28T09:51:20.090Z,8.03
2022-08-28T09:54:00.075Z,7.77
2022-08-28T09:56:35.378Z,8.17
2022-08-28T09:59:02.788Z,9.67
2022-08-28T10:01:44.852Z,8.63
2022-08-28T10:04:18.253Z,6.83
2022-08-28T10:06:53.087Z,8.27
2022-08-28T10:09:57.448Z,5.50
2022-08-28T10:12:46.050Z,12.03
2022-08-28T10:15:23.944Z,8.80
2022-08-28T10:18:09.511Z,7.97
2022-08-28T10:20:42.004Z,11.43
2022-08-28T10:23:23.552Z,7.20
2022-08-28T10:26:07.582Z,5.67
2022-08-28T10:28:44.572Z,7.83
2022-08-28T10:31:25.381Z,5.90
2022-08-28T10:34:11.249Z,7.27
2022-08-28T10:36:38.157Z,8.77
2022-08-28T10:39:27.776Z,6.40
2022-08-28T10:42:00.407Z,10.60
2022-08-28T10:44:35.523Z,9.27
2022-08-28T10:47:02.796Z,8.27
2022-08-28T10:49:30.687Z,8.47
2022-08-28T10:52:12.442Z,11.27
2022-08-28T10:54:58.947Z,10.40
2022-08-28T10:57:34.000Z,7.80
2022-08-28T11:00:15.651Z,7.27
2022-08-28T11:02:46.343Z,10.57
2022-08-28T11:05:13.560Z,9.20
2022-08-28T11:07:50.702Z,7.30
2022-08-28T11:10:38.910Z,5.60
2022-08-28T11:13:07.448Z,9.60
2022-08-28T11:15:37.247Z,6.03
2022-08-28T11:18:39.001Z,10.87
2022-08-28T11:21:20.316Z,13.93
2022-08-28T11:23:52.777Z,4.73
2022-08-28T11:26:33.960Z,10.67
2022-08-28T11:29:04.387Z,7.43
2022-08-28T11:31:34.288Z,7.00
2022-08-28T11:34:02.734Z,7.20
2022-08-28T11:36:32.621Z,6.60
2022-08-28T11:39:03.502Z,7.17
2022-08-28T11:41:37.027Z,5.33
2022-08-28T11:44:28.439Z,4.90
2022-08-28T11:47:33.966Z,7.57
2022-08-28T11:50:25.307Z,10.10
2022-08-28T11:53:08.382Z,8.47
2022-08-28T11:55:56.180Z,6.73
2022-08-28T11:58:29.450Z,7.97
2022-08-28T12:01:26.796Z,6.77
2022-08-28T12:04:07.584Z,5.37
2022-08-28T12:06:54.437Z,6.63
2022-08-28T12:09:44.791Z,6.53
2022-08-28T12:12:20.596Z,8.03
2022-08-28T12:14:47.210Z,6.63
2022-08-28T12:17:20.287Z,8.50
2022-08-28T12:19:55.946Z,17.87
2022-08-28T12:22:42.423Z,7.07
2022-08-28T12:25:32.536Z,6.90
2022-08-28T12:28:04.240Z,4.07
2022-08-28T12:30:36.594Z,8.10
2022-08-28T12:33:15.219Z,5.53
2022-08-28T12:35:43.832Z,7.17
2022-08-28T12:38:20.111Z,5.73
2022-08-28T12:40:53.479Z,4.10
2022-08-28T12:43:35.729Z,3.90
2022-08-28T12:46:18.989Z,6.60
2022-08-28T12:48:58.091Z,10.10
2022-08-28T12:51:31.151Z,6.80
2022-08-28T12:54:00.533Z,6.10
2022-08-28T12:56:34.053Z,9.63
2022-08-28T12:59:36.178Z,6.33
2022-08-28T13:02:18.442Z,4.40
2022-08-28T13:04:53.525Z,8.83
2022-08-28T13:07:28.987Z,6.47
2022-08-28T13:09:57.116Z,6.43
2022-08-28T13:12:54.323Z,4.63
2022-08-28T13:15:43.286Z,9.13
2022-08-28T13:18:10.779Z,8.00
2022-08-28T13:20:38.955Z,4.60
2022-08-28T13:23:07.959Z,8.17
2022-08-28T13:25:37.275Z,7.70
2022-08-28T13:28:14.822Z,6.50
2022-08-28T13:30:41.601Z,4.40
2022-08-28T13:33:20.487Z,5.23
2022-08-28T13:35:48.104Z,4.33
2022-08-28T13:38:16.871Z,7.17
2022-08-28T13:40:58.059Z,5.07
2022-08-28T13:43:28.396Z,4.80
2022-08-28T13:45:55.066Z,6.27
2022-08-28T13:48:27.099Z,4.30
2022-08-28T13:50:58.141Z,3.50
2022-08-28T13:53:25.414Z,7.30
2022-08-28T13:55:55.758Z,5.73
2022-08-28T13:58:23.086Z,4.80
2022-08-28T14:00:50.914Z,5.47
2022-08-28T14:03:36.005Z,7.40
2022-08-28T14:06:05.039Z,7.70
2022-08-28T14:08:34.101Z,4.70
2022-08-28T14:11:01.694Z,5.43
2022-08-28T14:13:28.718Z,5.27
2022-08-28T14:15:56.066Z,7.43
2022-08-28T14:18:28.421Z,4.03
2022-08-28T14:20:55.070Z,6.23
2022-08-28T14:23:22.980Z,5.43
2022-08-28T14:25:50.056Z,6.50
2022-08-28T14:28:17.594Z,4.30
2022-08-28T14:30:46.503Z,4.10
2022-08-28T14:33:16.689Z,6.90
2022-08-28T14:35:43.403Z,6.73
2022-08-28T14:38:10.892Z,6.03
2022-08-28T14:40:42.805Z,5.20
2022-08-28T14:43:11.653Z,8.23
2022-08-28T14:45:46.334Z,6.57
2022-08-28T14:48:14.760Z,6.53
2022-08-28T14:50:46.494Z,5.63
2022-08-28T14:53:14.438Z,3.90
2022-08-28T14:55:49.454Z,4.43
2022-08-28T14:58:17.951Z,6.03
2022-08-28T15:00:47.653Z,6.93
2022-08-28T15:03:15.436Z,5.40
2022-08-28T15:05:42.455Z,8.33
2022-08-28T15:08:11.475Z,6.73
2022-08-28T15:10:39.706Z,8.23
2022-08-28T15:13:09.169Z,8.13
2022-08-28T15:15:41.063Z,6.20
2022-08-28T15:18:08.459Z,8.20
2022-08-28T15:20:43.959Z,6.90
2022-08-28T15:23:11.515Z,8.27
2022-08-28T15:25:38.190Z,3.13
2022-08-28T15:28:05.308Z,5.13
2022-08-28T15:30:32.386Z,6.07
2022-08-28T15:32:59.030Z,7.10
2022-08-28T15:35:25.605Z,12.23
2022-08-28T15:37:53.475Z,8.83
2022-08-28T15:40:39.339Z,11.70
2022-08-28T15:43:06.127Z,7.93
2022-08-28T15:45:37.449Z,5.23
2022-08-28T15:48:04.352Z,5.80
2022-08-28T15:50:31.027Z,9.60
2022-08-28T15:52:58.861Z,6.20
2022-08-28T15:55:27.695Z,7.07
2022-08-28T15:57:55.089Z,3.10
2022-08-28T16:00:22.551Z,5.67
2022-08-28T16:02:49.198Z,4.40
2022-08-28T16:05:18.604Z,8.17
2022-08-28T16:07:48.410Z,4.40
2022-08-28T16:10:17.424Z,5.17
2022-08-28T16:12:44.070Z,8.57
2022-08-28T16:15:21.090Z,6.37
2022-08-28T16:17:48.795Z,9.37
2022-08-28T16:20:15.677Z,6.20
2022-08-28T16:22:42.504Z,4.47
2022-08-28T16:25:09.746Z,5.30
2022-08-28T16:27:36.584Z,5.23
2022-08-28T16:30:05.042Z,5.70
2022-08-28T16:32:31.760Z,8.30
2022-08-28T16:34:58.473Z,11.07
2022-08-28T16:37:26.048Z,11.20
2022-08-28T16:40:06.448Z,6.33
2022-08-28T16:42:51.588Z,3.70
2022-08-28T16:45:24.503Z,4.90
2022-08-28T16:47:51.384Z,6.17
2022-08-28T16:50:19.382Z,4.10
2022-08-28T16:52:57.256Z,9.97
2022-08-28T16:55:23.972Z,4.77
2022-08-28T16:57:50.864Z,4.30
2022-08-28T17:00:25.760Z,8.30
2022-08-28T17:02:52.529Z,6.37
2022-08-28T17:05:27.370Z,6.87
2022-08-28T17:07:56.689Z,7.33
2022-08-28T17:10:24.566Z,3.83
2022-08-28T17:12:51.562Z,4.83
2022-08-28T17:15:20.260Z,9.30
2022-08-28T17:17:54.401Z,5.33
2022-08-28T17:20:39.669Z,8.33
2022-08-28T17:23:06.319Z,5.23
2022-08-28T17:25:33.315Z,3.77
2022-08-28T17:28:00.614Z,6.10
2022-08-28T17:30:30.384Z,3.77
2022-08-28T17:32:57.197Z,4.77
2022-08-28T17:35:23.916Z,7.60
2022-08-28T17:37:53.798Z,9.20
2022-08-28T17:40:27.931Z,7.50
2022-08-28T17:42:54.732Z,7.47
2022-08-28T17:45:21.437Z,8.57
2022-08-28T17:47:48.117Z,5.70
2022-08-28T17:50:16.704Z,6.43
2022-08-28T17:52:43.419Z,9.70
2022-08-28T17:55:10.271Z,8.23
2022-08-28T17:57:37.107Z,5.17
2022-08-28T18:00:06.487Z,5.27
2022-08-28T18:02:39.422Z,7.10
2022-08-28T18:05:07.839Z,10.57
2022-08-28T18:07:34.542Z,7.50
2022-08-28T18:10:07.693Z,7.40
2022-08-28T18:12:34.909Z,6.00
2022-08-28T18:15:01.994Z,6.63
2022-08-28T18:17:28.706Z,6.50
2022-08-28T18:19:56.774Z,14.27
2022-08-28T18:22:29.603Z,5.60
2022-08-28T18:24:56.673Z,6.77
2022-08-28T18:27:26.511Z,8.10
2022-08-28T18:29:55.902Z,7.73
2022-08-28T18:32:22.627Z,7.50
2022-08-28T18:34:49.241Z,9.13
2022-08-28T18:37:16.543Z,9.73
2022-08-28T18:39:43.399Z,10.80
2022-08-28T18:42:12.205Z,14.50
2022-08-28T18:44:38.935Z,9.87
2022-08-28T18:47:05.691Z,11.57
2022-08-28T18:49:32.315Z,7.40
2022-08-28T18:51:59.016Z,9.50
2022-08-28T18:54:30.297Z,9.43
2022-08-28T18:57:03.909Z,8.47
2022-08-28T18:59:32.645Z,14.50
2022-08-28T19:02:06.227Z,9.67
2022-08-28T19:04:33.456Z,11.80
2022-08-28T19:07:00.118Z,18.83
2022-08-28T19:09:32.255Z,12.50
2022-08-28T19:11:59.807Z,8.60
2022-08-28T19:14:27.246Z,8.80
2022-08-28T19:16:55.497Z,11.60
2022-08-28T19:19:22.490Z,13.40
2022-08-28T19:21:51.556Z,11.90
2022-08-28T19:24:19.295Z,11.43
2022-08-28T19:26:46.250Z,9.10
2022-08-28T19:29:13.061Z,11.43
2022-08-28T19:31:39.912Z,9.83
2022-08-28T19:34:10.343Z,17.03
2022-08-28T19:36:37.831Z,9.30
2022-08-28T19:39:05.468Z,10.20
2022-08-28T19:41:33.043Z,8.73
2022-08-28T19:43:59.856Z,10.80
2022-08-28T19:46:28.811Z,8.83
2022-08-28T19:48:56.739Z,11.77
2022-08-28T19:51:24.498Z,11.07
2022-08-28T19:53:57.803Z,8.33
2022-08-28T19:56:27.366Z,11.23
2022-08-28T19:58:57.473Z,9.10
2022-08-28T20:01:24.418Z,8.73
2022-08-28T20:03:51.239Z,9.90
2022-08-28T20:06:18.312Z,12.17
2022-08-28T20:08:45.508Z,16.67
2022-08-28T20:11:24.576Z,12.57
2022-08-28T20:13:56.610Z,11.70
2022-08-28T20:16:24.385Z,14.33
2022-08-28T20:18:59.191Z,10.57
2022-08-28T20:21:36.789Z,11.70
2022-08-28T20:24:06.986Z,9.00
2022-08-28T20:26:33.849Z,10.73
2022-08-28T20:29:00.903Z,7.70
2022-08-28T20:31:27.675Z,12.23
2022-08-28T20:33:56.960Z,9.13
2022-08-28T20:36:27.093Z,13.33
2022-08-28T20:38:57.411Z,12.33
2022-08-28T20:41:24.527Z,10.73
2022-08-28T20:43:55.830Z,6.70
2022-08-28T20:46:25.655Z,12.77
2022-08-28T20:48:52.395Z,8.80
2022-08-28T20:51:39.037Z,6.87
2022-08-28T20:54:08.046Z,9.13
2022-08-28T20:56:35.071Z,14.40
2022-08-28T20:59:01.909Z,12.60
2022-08-28T21:01:28.662Z,7.60
2022-08-28T21:03:55.555Z,10.57
2022-08-28T21:06:24.464Z,9.07
2022-08-28T21:08:55.969Z,17.63
2022-08-28T21:11:24.573Z,10.73
2022-08-28T21:13:51.488Z,16.37
2022-08-28T21:16:20.645Z,8.37
2022-08-28T21:19:05.382Z,13.50
2022-08-28T21:21:35.610Z,7.07
2022-08-28T21:24:04.615Z,9.23
2022-08-28T21:26:31.329Z,8.00
2022-08-28T21:29:00.586Z,8.40
2022-08-28T21:31:27.382Z,6.20
2022-08-28T21:33:54.156Z,5.90
2022-08-28T21:36:20.921Z,15.23
2022-08-28T21:38:47.702Z,10.07
2022-08-28T21:41:18.022Z,6.53
2022-08-28T21:43:46.529Z,10.77
2022-08-28T21:46:15.052Z,8.50
2022-08-28T21:48:42.767Z,11.43
2022-08-28T21:51:12.547Z,9.80
2022-08-28T21:53:42.846Z,14.13
2022-08-28T21:56:10.484Z,7.37
2022-08-28T21:58:41.054Z,9.50
2022-08-28T22:01:18.019Z,10.37
2022-08-28T22:03:45.036Z,7.47
2022-08-28T22:06:14.856Z,10.27
2022-08-28T22:08:42.680Z,11.57
2022-08-28T22:11:10.431Z,10.00
2022-08-28T22:13:37.558Z,7.50
2022-08-28T22:16:06.664Z,9.10
2022-08-28T22:18:43.459Z,11.73
2022-08-28T22:21:37.618Z,10.90
2022-08-28T22:24:04.834Z,7.70
2022-08-28T22:26:31.763Z,8.60
2022-08-28T22:28:58.473Z,7.93
2022-08-28T22:31:25.215Z,14.20
2022-08-28T22:33:52.481Z,8.83
2022-08-28T22:36:20.062Z,11.70
2022-08-28T22:38:53.486Z,7.60
2022-08-28T22:41:20.464Z,10.90
2022-08-28T22:43:51.116Z,8.00
2022-08-28T22:46:18.873Z,14.80
2022-08-28T22:48:46.018Z,7.50
2022-08-28T22:51:15.741Z,8.70
2022-08-28T22:53:45.194Z,14.87
2022-08-28T22:56:12.261Z,6.37
2022-08-28T22:58:40.110Z,7.33
2022-08-28T23:01:21.185Z,5.90
2022-08-28T23:03:49.972Z,10.07
2022-08-28T23:06:17.170Z,18.30
2022-08-28T23:08:44.368Z,12.53
2022-08-28T23:11:11.360Z,8.47
2022-08-28T23:13:48.494Z,10.20
2022-08-28T23:16:23.588Z,9.07
2022-08-28T23:19:07.517Z,12.40
2022-08-28T23:21:36.114Z,7.93
2022-08-28T23:24:10.135Z,9.07
2022-08-28T23:26:36.790Z,8.50
2022-08-28T23:29:03.700Z,8.93
2022-08-28T23:31:30.450Z,11.33
2022-08-28T23:34:06.144Z,12.60
2022-08-28T23:36:35.334Z,9.47
2022-08-28T23:39:02.991Z,14.30
2022-08-28T23:41:31.668Z,8.80
2022-08-28T23:43:58.439Z,7.27
2022-08-28T23:46:25.237Z,8.50
2022-08-28T23:48:52.512Z,8.73
2022-08-28T23:51:21.966Z,8.70
2022-08-28T23:53:52.000Z,7.60
2022-08-28T23:56:18.828Z,9.57
2022-08-28T23:58:45.667Z,14.37
